MNB0403 OPKC-OAKB
Flight info
| Callsign | MNB0403 |
|---|---|
| Flight time | 1h 36m |
| Altitude | 33000 |
| Route | BADUL B466 NH J119 SK G214 LUBNA G326 ZB G325 SAJAN/N0473F320 A466 SITAX M875 KODAD DCT LEELO |
| Aircraft | A306/H-SDE3FGHIRWY/LB1 |
Departure
| Time | 2026-05-07 20:20 |
|---|---|
| Airport | Jinnah International Airport (OPKC) |
Arrival
| Time | 2026-05-07 21:56 |
|---|---|
| Airport | Kabul International Airport (OAKB) |
| Time | Latitude | Longitude | Altitude | Speed | Heading |
|---|---|---|---|---|---|
| 2026-05-07 19:54 | 24.89821 | 67.14789 | 107 ft | 0 kts | 325° |
| 2026-05-07 20:10 | 24.89797 | 67.14806 | 107 ft | 4 kts | 336° |
| 2026-05-07 20:10 | 24.89772 | 67.14815 | 105 ft | 4 kts | 352° |
| 2026-05-07 20:10 | 24.89747 | 67.14816 | 106 ft | 4 kts | 19° |
| 2026-05-07 20:10 | 24.89729 | 67.14804 | 106 ft | 3 kts | 72° |
| 2026-05-07 20:11 | 24.89727 | 67.14796 | 105 ft | 0 kts | 75° |
| 2026-05-07 20:13 | 24.89734 | 67.14826 | 106 ft | 7 kts | 74° |
| 2026-05-07 20:13 | 24.89756 | 67.14901 | 107 ft | 12 kts | 64° |
| 2026-05-07 20:14 | 24.89825 | 67.14962 | 107 ft | 13 kts | 32° |
| 2026-05-07 20:14 | 24.89874 | 67.15025 | 107 ft | 11 kts | 57° |
| 2026-05-07 20:14 | 24.89942 | 67.15081 | 107 ft | 14 kts | 32° |
| 2026-05-07 20:14 | 24.90005 | 67.15153 | 107 ft | 13 kts | 72° |
| 2026-05-07 20:15 | 24.90013 | 67.15260 | 107 ft | 15 kts | 90° |
| 2026-05-07 20:15 | 24.90016 | 67.15386 | 107 ft | 18 kts | 89° |
| 2026-05-07 20:15 | 24.90045 | 67.15514 | 107 ft | 18 kts | 45° |
| 2026-05-07 20:15 | 24.90145 | 67.15605 | 107 ft | 20 kts | 38° |
| 2026-05-07 20:16 | 24.90229 | 67.15720 | 108 ft | 19 kts | 75° |
| 2026-05-07 20:16 | 24.90268 | 67.15867 | 106 ft | 21 kts | 73° |
| 2026-05-07 20:16 | 24.90306 | 67.16030 | 108 ft | 23 kts | 73° |
| 2026-05-07 20:16 | 24.90352 | 67.16207 | 108 ft | 25 kts | 75° |
| 2026-05-07 20:17 | 24.90400 | 67.16398 | 108 ft | 26 kts | 75° |
| 2026-05-07 20:17 | 24.90451 | 67.16599 | 108 ft | 28 kts | 73° |
| 2026-05-07 20:17 | 24.90505 | 67.16813 | 108 ft | 30 kts | 75° |
| 2026-05-07 20:17 | 24.90560 | 67.17029 | 108 ft | 28 kts | 75° |
| 2026-05-07 20:18 | 24.90618 | 67.17242 | 108 ft | 30 kts | 73° |
| 2026-05-07 20:18 | 24.90696 | 67.17437 | 108 ft | 27 kts | 35° |
| 2026-05-07 20:18 | 24.90847 | 67.17465 | 112 ft | 19 kts | 313° |
| 2026-05-07 20:18 | 24.90854 | 67.17399 | 110 ft | 0 kts | 256° |
| 2026-05-07 20:19 | 24.90829 | 67.17299 | 111 ft | 41 kts | 255° |
| 2026-05-07 20:19 | 24.90692 | 67.16755 | 112 ft | 105 kts | 255° |
| 2026-05-07 20:19 | 24.90447 | 67.15780 | 110 ft | 158 kts | 255° |
| 2026-05-07 20:19 | 24.90138 | 67.14538 | 646 ft | 167 kts | 254° |
| 2026-05-07 20:20 | 24.89978 | 67.13901 | 1005 ft | 169 kts | 253° |
| 2026-05-07 20:20 | 24.89835 | 67.12573 | 1636 ft | 182 kts | 281° |
| 2026-05-07 20:20 | 24.90519 | 67.11345 | 2117 ft | 206 kts | 322° |
| 2026-05-07 20:20 | 24.91952 | 67.10902 | 2511 ft | 232 kts | 2° |
| 2026-05-07 20:21 | 24.93478 | 67.11627 | 2931 ft | 253 kts | 42° |
| 2026-05-07 20:21 | 24.94518 | 67.13226 | 3556 ft | 260 kts | 59° |
| 2026-05-07 20:21 | 24.95444 | 67.14943 | 4312 ft | 261 kts | 56° |
| 2026-05-07 20:21 | 24.96446 | 67.16609 | 5054 ft | 261 kts | 53° |
| 2026-05-07 20:22 | 24.97519 | 67.18237 | 5765 ft | 264 kts | 52° |
| 2026-05-07 20:22 | 24.98642 | 67.19849 | 6469 ft | 266 kts | 51° |
| 2026-05-07 20:22 | 24.99791 | 67.21449 | 7211 ft | 266 kts | 50° |
| 2026-05-07 20:22 | 25.00559 | 67.22504 | 7733 ft | 266 kts | 49° |
| 2026-05-07 20:23 | 25.02099 | 67.24600 | 8799 ft | 266 kts | 49° |
| 2026-05-07 20:23 | 25.03269 | 67.26183 | 9617 ft | 266 kts | 49° |
| 2026-05-07 20:23 | 25.04434 | 67.27757 | 10357 ft | 267 kts | 49° |
| 2026-05-07 20:23 | 25.05237 | 67.28840 | 10867 ft | 268 kts | 48° |
| 2026-05-07 20:24 | 25.06807 | 67.30957 | 11855 ft | 270 kts | 48° |
| 2026-05-07 20:24 | 25.07613 | 67.32044 | 12361 ft | 271 kts | 48° |
| 2026-05-07 20:24 | 25.08808 | 67.33655 | 13112 ft | 273 kts | 48° |
| 2026-05-07 20:24 | 25.10000 | 67.35256 | 13795 ft | 274 kts | 46° |
| 2026-05-07 20:25 | 25.11367 | 67.36730 | 14363 ft | 278 kts | 39° |
| 2026-05-07 20:25 | 25.12885 | 67.38149 | 14661 ft | 294 kts | 38° |
| 2026-05-07 20:25 | 25.14508 | 67.39631 | 14915 ft | 311 kts | 38° |
| 2026-05-07 20:25 | 25.16212 | 67.41191 | 15159 ft | 326 kts | 38° |
| 2026-05-07 20:26 | 25.17992 | 67.42827 | 15404 ft | 341 kts | 38° |
| 2026-05-07 20:26 | 25.19847 | 67.44537 | 15649 ft | 354 kts | 38° |
| 2026-05-07 20:26 | 25.21772 | 67.46317 | 15877 ft | 367 kts | 38° |
| 2026-05-07 20:26 | 25.23766 | 67.48154 | 16097 ft | 379 kts | 38° |
| 2026-05-07 20:27 | 25.25830 | 67.50044 | 16311 ft | 391 kts | 38° |
| 2026-05-07 20:27 | 25.27951 | 67.51980 | 16517 ft | 401 kts | 38° |
| 2026-05-07 20:27 | 25.30128 | 67.53967 | 16797 ft | 409 kts | 38° |
| 2026-05-07 20:27 | 25.32329 | 67.55977 | 17160 ft | 413 kts | 38° |
| 2026-05-07 20:28 | 25.34553 | 67.58011 | 17569 ft | 416 kts | 38° |
| 2026-05-07 20:28 | 25.36794 | 67.60063 | 17956 ft | 420 kts | 38° |
| 2026-05-07 20:28 | 25.39047 | 67.62126 | 18303 ft | 422 kts | 38° |
| 2026-05-07 20:28 | 25.41313 | 67.64203 | 18657 ft | 424 kts | 38° |
| 2026-05-07 20:29 | 25.43591 | 67.66291 | 19011 ft | 426 kts | 38° |
| 2026-05-07 20:29 | 25.45873 | 67.68384 | 19351 ft | 427 kts | 38° |
| 2026-05-07 20:29 | 25.48166 | 67.70488 | 19670 ft | 429 kts | 38° |
| 2026-05-07 20:29 | 25.50466 | 67.72600 | 20004 ft | 431 kts | 38° |
| 2026-05-07 20:30 | 25.52777 | 67.74723 | 20327 ft | 432 kts | 38° |
| 2026-05-07 20:30 | 25.55092 | 67.76851 | 20659 ft | 434 kts | 37° |
| 2026-05-07 20:30 | 25.57420 | 67.78991 | 20982 ft | 435 kts | 37° |
| 2026-05-07 20:30 | 25.59750 | 67.81135 | 21303 ft | 437 kts | 37° |
| 2026-05-07 20:31 | 25.62091 | 67.83290 | 21613 ft | 438 kts | 37° |
| 2026-05-07 20:31 | 25.64440 | 67.85454 | 21912 ft | 440 kts | 37° |
| 2026-05-07 20:31 | 25.66797 | 67.87626 | 22213 ft | 441 kts | 37° |
| 2026-05-07 20:31 | 25.69130 | 67.89777 | 22507 ft | 443 kts | 37° |
| 2026-05-07 20:32 | 25.71498 | 67.91962 | 22818 ft | 444 kts | 37° |
| 2026-05-07 20:32 | 25.73878 | 67.94160 | 23092 ft | 446 kts | 37° |
| 2026-05-07 20:32 | 25.76264 | 67.96363 | 23363 ft | 447 kts | 36° |
| 2026-05-07 20:32 | 25.78660 | 67.98576 | 23558 ft | 450 kts | 36° |
| 2026-05-07 20:33 | 25.81073 | 68.00806 | 23757 ft | 452 kts | 36° |
| 2026-05-07 20:33 | 25.83496 | 68.03046 | 23948 ft | 454 kts | 36° |
| 2026-05-07 20:33 | 25.85925 | 68.05294 | 24135 ft | 456 kts | 36° |
| 2026-05-07 20:33 | 25.88370 | 68.07559 | 24327 ft | 458 kts | 36° |
| 2026-05-07 20:34 | 25.90821 | 68.09830 | 24523 ft | 460 kts | 36° |
| 2026-05-07 20:34 | 25.93287 | 68.12115 | 24708 ft | 462 kts | 36° |
| 2026-05-07 20:34 | 25.95759 | 68.14409 | 24907 ft | 464 kts | 36° |
| 2026-05-07 20:34 | 25.98246 | 68.16717 | 25083 ft | 466 kts | 36° |
| 2026-05-07 20:35 | 26.00739 | 68.19033 | 25257 ft | 468 kts | 36° |
| 2026-05-07 20:35 | 26.03243 | 68.21360 | 25439 ft | 470 kts | 36° |
| 2026-05-07 20:35 | 26.05754 | 68.23694 | 25621 ft | 472 kts | 35° |
| 2026-05-07 20:35 | 26.08279 | 68.26043 | 25794 ft | 474 kts | 35° |
| 2026-05-07 20:36 | 26.10809 | 68.28398 | 25968 ft | 476 kts | 35° |
| 2026-05-07 20:36 | 26.13351 | 68.30767 | 26142 ft | 477 kts | 35° |
| 2026-05-07 20:36 | 26.15899 | 68.33141 | 26317 ft | 479 kts | 35° |
| 2026-05-07 20:36 | 26.18474 | 68.35504 | 26484 ft | 479 kts | 32° |
| 2026-05-07 20:37 | 26.21239 | 68.37530 | 26656 ft | 475 kts | 24° |
| 2026-05-07 20:37 | 26.24228 | 68.39033 | 26924 ft | 468 kts | 15° |
| 2026-05-07 20:37 | 26.27318 | 68.40104 | 27197 ft | 465 kts | 11° |
| 2026-05-07 20:37 | 26.30435 | 68.41037 | 27481 ft | 463 kts | 9° |
| 2026-05-07 20:38 | 26.33559 | 68.41894 | 27760 ft | 462 kts | 9° |
| 2026-05-07 20:38 | 26.36687 | 68.42721 | 28051 ft | 461 kts | 8° |
| 2026-05-07 20:38 | 26.39805 | 68.43540 | 28341 ft | 460 kts | 8° |
| 2026-05-07 20:38 | 26.42917 | 68.44364 | 28643 ft | 460 kts | 8° |
| 2026-05-07 20:39 | 26.46022 | 68.45197 | 28940 ft | 459 kts | 8° |
| 2026-05-07 20:39 | 26.49128 | 68.46038 | 29234 ft | 458 kts | 8° |
| 2026-05-07 20:39 | 26.52221 | 68.46882 | 29533 ft | 458 kts | 8° |
| 2026-05-07 20:39 | 26.55312 | 68.47730 | 29831 ft | 457 kts | 8° |
| 2026-05-07 20:40 | 26.58396 | 68.48577 | 30097 ft | 456 kts | 8° |
| 2026-05-07 20:40 | 26.61430 | 68.49411 | 30353 ft | 455 kts | 8° |
| 2026-05-07 20:40 | 26.64506 | 68.50256 | 30618 ft | 454 kts | 8° |
| 2026-05-07 20:40 | 26.67571 | 68.51099 | 30883 ft | 453 kts | 7° |
| 2026-05-07 20:41 | 26.70626 | 68.51939 | 31141 ft | 452 kts | 7° |
| 2026-05-07 20:41 | 26.73675 | 68.52773 | 31406 ft | 451 kts | 7° |
| 2026-05-07 20:41 | 26.76721 | 68.53599 | 31688 ft | 449 kts | 7° |
| 2026-05-07 20:41 | 26.79757 | 68.54418 | 31952 ft | 448 kts | 7° |
| 2026-05-07 20:42 | 26.82786 | 68.55234 | 32196 ft | 448 kts | 7° |
| 2026-05-07 20:42 | 26.85818 | 68.56051 | 32442 ft | 447 kts | 6° |
| 2026-05-07 20:42 | 26.88834 | 68.56865 | 32655 ft | 447 kts | 6° |
| 2026-05-07 20:43 | 26.94879 | 68.58500 | 32703 ft | 446 kts | 6° |
| 2026-05-07 20:43 | 27.00901 | 68.60131 | 32702 ft | 445 kts | 6° |
| 2026-05-07 20:44 | 27.06920 | 68.61764 | 32699 ft | 445 kts | 6° |
| 2026-05-07 20:44 | 27.12938 | 68.63399 | 32697 ft | 445 kts | 6° |
| 2026-05-07 20:45 | 27.18960 | 68.65037 | 32701 ft | 445 kts | 6° |
| 2026-05-07 20:45 | 27.24980 | 68.66676 | 32698 ft | 445 kts | 6° |
| 2026-05-07 20:46 | 27.31007 | 68.68319 | 32700 ft | 445 kts | 6° |
| 2026-05-07 20:46 | 27.36990 | 68.69952 | 32700 ft | 446 kts | 6° |
| 2026-05-07 20:47 | 27.43014 | 68.71597 | 32701 ft | 446 kts | 6° |
| 2026-05-07 20:47 | 27.49043 | 68.73246 | 32703 ft | 446 kts | 6° |
| 2026-05-07 20:48 | 27.55070 | 68.74896 | 32700 ft | 446 kts | 6° |
| 2026-05-07 20:48 | 27.61105 | 68.76550 | 32705 ft | 446 kts | 6° |
| 2026-05-07 20:49 | 27.67077 | 68.78593 | 32703 ft | 457 kts | 16° |
| 2026-05-07 20:49 | 27.69902 | 68.80323 | 32702 ft | 468 kts | 25° |
| 2026-05-07 20:49 | 27.72480 | 68.82634 | 32708 ft | 480 kts | 36° |
| 2026-05-07 20:49 | 27.74684 | 68.85516 | 32711 ft | 493 kts | 47° |
| 2026-05-07 20:50 | 27.76473 | 68.88864 | 32715 ft | 500 kts | 53° |
| 2026-05-07 20:50 | 27.79651 | 68.95866 | 32711 ft | 504 kts | 57° |
| 2026-05-07 20:51 | 27.82716 | 69.02990 | 32710 ft | 504 kts | 57° |
| 2026-05-07 20:51 | 27.85781 | 69.10034 | 32714 ft | 503 kts | 56° |
| 2026-05-07 20:52 | 27.89519 | 69.16556 | 32700 ft | 484 kts | 39° |
| 2026-05-07 20:52 | 27.91955 | 69.19113 | 32711 ft | 471 kts | 29° |
| 2026-05-07 20:52 | 27.94714 | 69.21098 | 32716 ft | 459 kts | 19° |
| 2026-05-07 20:52 | 27.97623 | 69.22432 | 32714 ft | 448 kts | 9° |
| 2026-05-07 20:53 | 28.00604 | 69.23145 | 32717 ft | 438 kts | 360° |
| 2026-05-07 20:53 | 28.06688 | 69.23705 | 32716 ft | 435 kts | 356° |
| 2026-05-07 20:54 | 28.12684 | 69.24035 | 32718 ft | 435 kts | 356° |
| 2026-05-07 20:54 | 28.18725 | 69.24377 | 32725 ft | 435 kts | 356° |
| 2026-05-07 20:55 | 28.24779 | 69.24761 | 32721 ft | 435 kts | 356° |
| 2026-05-07 20:55 | 28.30829 | 69.25163 | 32725 ft | 435 kts | 357° |
| 2026-05-07 20:56 | 28.36869 | 69.25568 | 32729 ft | 435 kts | 357° |
| 2026-05-07 20:56 | 28.42928 | 69.25973 | 32727 ft | 435 kts | 357° |
| 2026-05-07 20:57 | 28.48972 | 69.26376 | 32733 ft | 435 kts | 357° |
| 2026-05-07 20:57 | 28.55029 | 69.26780 | 32737 ft | 435 kts | 357° |
| 2026-05-07 20:58 | 28.61073 | 69.27183 | 32742 ft | 436 kts | 357° |
| 2026-05-07 20:58 | 28.67122 | 69.27587 | 32747 ft | 436 kts | 357° |
| 2026-05-07 20:59 | 28.73178 | 69.27993 | 32754 ft | 435 kts | 357° |
| 2026-05-07 20:59 | 28.79188 | 69.28392 | 32759 ft | 435 kts | 357° |
| 2026-05-07 21:00 | 28.85235 | 69.28795 | 32766 ft | 436 kts | 357° |
| 2026-05-07 21:00 | 28.90985 | 69.29178 | 32775 ft | 436 kts | 357° |
| 2026-05-07 21:01 | 28.97088 | 69.29585 | 32787 ft | 435 kts | 357° |
| 2026-05-07 21:01 | 29.03097 | 69.29985 | 32790 ft | 436 kts | 357° |
| 2026-05-07 21:02 | 29.09154 | 69.30390 | 32795 ft | 436 kts | 357° |
| 2026-05-07 21:02 | 29.15212 | 69.30797 | 32808 ft | 436 kts | 358° |
| 2026-05-07 21:03 | 29.21274 | 69.31207 | 32811 ft | 436 kts | 357° |
| 2026-05-07 21:03 | 29.27335 | 69.31616 | 32822 ft | 436 kts | 358° |
| 2026-05-07 21:04 | 29.33400 | 69.32025 | 32817 ft | 437 kts | 358° |
| 2026-05-07 21:04 | 29.39465 | 69.32435 | 32826 ft | 437 kts | 358° |
| 2026-05-07 21:05 | 29.45533 | 69.32846 | 32850 ft | 437 kts | 357° |
| 2026-05-07 21:05 | 29.51605 | 69.33257 | 32841 ft | 437 kts | 358° |
| 2026-05-07 21:06 | 29.57685 | 69.33670 | 32847 ft | 438 kts | 358° |
| 2026-05-07 21:06 | 29.63774 | 69.34091 | 32861 ft | 438 kts | 358° |
| 2026-05-07 21:07 | 29.69864 | 69.34508 | 32863 ft | 439 kts | 358° |
| 2026-05-07 21:07 | 29.75956 | 69.34917 | 32873 ft | 438 kts | 358° |
| 2026-05-07 21:08 | 29.82047 | 69.35330 | 32875 ft | 438 kts | 358° |
| 2026-05-07 21:08 | 29.88128 | 69.35746 | 32885 ft | 438 kts | 358° |
| 2026-05-07 21:09 | 29.94218 | 69.36159 | 32881 ft | 439 kts | 358° |
| 2026-05-07 21:09 | 30.00273 | 69.36573 | 32888 ft | 439 kts | 358° |
| 2026-05-07 21:10 | 30.06375 | 69.36993 | 32896 ft | 439 kts | 358° |
| 2026-05-07 21:10 | 30.12474 | 69.37412 | 32894 ft | 439 kts | 358° |
| 2026-05-07 21:11 | 30.18566 | 69.37832 | 32894 ft | 439 kts | 358° |
| 2026-05-07 21:11 | 30.27702 | 69.38458 | 32899 ft | 438 kts | 358° |
| 2026-05-07 21:12 | 30.33792 | 69.38878 | 32898 ft | 438 kts | 358° |
| 2026-05-07 21:12 | 30.39883 | 69.39301 | 32903 ft | 438 kts | 358° |
| 2026-05-07 21:13 | 30.45962 | 69.39722 | 32915 ft | 438 kts | 358° |
| 2026-05-07 21:13 | 30.52043 | 69.40144 | 32912 ft | 438 kts | 358° |
| 2026-05-07 21:14 | 30.57097 | 69.40495 | 32912 ft | 438 kts | 358° |
| 2026-05-07 21:14 | 30.63175 | 69.40917 | 32920 ft | 438 kts | 358° |
| 2026-05-07 21:15 | 30.69251 | 69.41340 | 32922 ft | 437 kts | 358° |
| 2026-05-07 21:15 | 30.75326 | 69.41763 | 32926 ft | 437 kts | 359° |
| 2026-05-07 21:16 | 30.81393 | 69.42186 | 32929 ft | 436 kts | 359° |
| 2026-05-07 21:16 | 30.87448 | 69.42609 | 32933 ft | 436 kts | 359° |
| 2026-05-07 21:17 | 30.93501 | 69.43032 | 32933 ft | 436 kts | 359° |
| 2026-05-07 21:17 | 30.99561 | 69.43455 | 32936 ft | 436 kts | 359° |
| 2026-05-07 21:18 | 31.05617 | 69.43879 | 32942 ft | 436 kts | 359° |
| 2026-05-07 21:18 | 31.11684 | 69.44304 | 32937 ft | 436 kts | 359° |
| 2026-05-07 21:19 | 31.17741 | 69.44730 | 32940 ft | 436 kts | 359° |
| 2026-05-07 21:19 | 31.23794 | 69.45156 | 32939 ft | 436 kts | 359° |
| 2026-05-07 21:20 | 31.29855 | 69.45584 | 32940 ft | 436 kts | 359° |
| 2026-05-07 21:20 | 31.35865 | 69.46853 | 32941 ft | 446 kts | 13° |
| 2026-05-07 21:21 | 31.41469 | 69.50039 | 32937 ft | 454 kts | 24° |
| 2026-05-07 21:21 | 31.46910 | 69.53839 | 32941 ft | 456 kts | 25° |
| 2026-05-07 21:22 | 31.52314 | 69.57731 | 32937 ft | 456 kts | 25° |
| 2026-05-07 21:22 | 31.57727 | 69.61603 | 32935 ft | 455 kts | 25° |
| 2026-05-07 21:23 | 31.63145 | 69.65449 | 32934 ft | 455 kts | 25° |
| 2026-05-07 21:23 | 31.68560 | 69.69291 | 32932 ft | 455 kts | 25° |
| 2026-05-07 21:24 | 31.73974 | 69.73133 | 32915 ft | 455 kts | 25° |
| 2026-05-07 21:24 | 31.79383 | 69.76977 | 32911 ft | 455 kts | 25° |
| 2026-05-07 21:25 | 31.84790 | 69.80830 | 32887 ft | 454 kts | 25° |
| 2026-05-07 21:25 | 31.90203 | 69.84691 | 32904 ft | 455 kts | 25° |
| 2026-05-07 21:26 | 31.95607 | 69.88550 | 32871 ft | 454 kts | 25° |
| 2026-05-07 21:26 | 32.01010 | 69.92420 | 32876 ft | 454 kts | 25° |
| 2026-05-07 21:27 | 32.06412 | 69.96293 | 32867 ft | 455 kts | 25° |
| 2026-05-07 21:27 | 32.11823 | 70.00168 | 32869 ft | 455 kts | 26° |
| 2026-05-07 21:28 | 32.17232 | 70.04048 | 32862 ft | 455 kts | 26° |
| 2026-05-07 21:28 | 32.22603 | 70.07910 | 32860 ft | 455 kts | 26° |
| 2026-05-07 21:29 | 32.28010 | 70.11808 | 32863 ft | 455 kts | 26° |
| 2026-05-07 21:29 | 32.33424 | 70.15706 | 32851 ft | 456 kts | 26° |
| 2026-05-07 21:30 | 32.38850 | 70.19598 | 32861 ft | 456 kts | 25° |
| 2026-05-07 21:30 | 32.44319 | 70.23405 | 32857 ft | 456 kts | 25° |
| 2026-05-07 21:31 | 32.49795 | 70.27193 | 32857 ft | 456 kts | 25° |
| 2026-05-07 21:31 | 32.55300 | 70.30926 | 32846 ft | 454 kts | 21° |
| 2026-05-07 21:32 | 32.61221 | 70.33182 | 32845 ft | 443 kts | 4° |
| 2026-05-07 21:32 | 32.67297 | 70.33041 | 32854 ft | 435 kts | 346° |
| 2026-05-07 21:33 | 32.72892 | 70.30533 | 32864 ft | 430 kts | 330° |
| 2026-05-07 21:33 | 32.78062 | 70.26940 | 32871 ft | 430 kts | 327° |
| 2026-05-07 21:34 | 32.83120 | 70.23228 | 32880 ft | 430 kts | 327° |
| 2026-05-07 21:34 | 32.88228 | 70.19497 | 32887 ft | 431 kts | 327° |
| 2026-05-07 21:35 | 32.93350 | 70.15794 | 32896 ft | 431 kts | 328° |
| 2026-05-07 21:35 | 32.98486 | 70.12092 | 32899 ft | 431 kts | 328° |
| 2026-05-07 21:36 | 33.03624 | 70.08386 | 32907 ft | 432 kts | 328° |
| 2026-05-07 21:36 | 33.08766 | 70.04698 | 32916 ft | 432 kts | 329° |
| 2026-05-07 21:37 | 33.14047 | 70.01274 | 32916 ft | 432 kts | 331° |
| 2026-05-07 21:37 | 33.19386 | 69.97968 | 32927 ft | 432 kts | 331° |
| 2026-05-07 21:38 | 33.24714 | 69.94650 | 32935 ft | 431 kts | 331° |
| 2026-05-07 21:38 | 33.30017 | 69.91310 | 32940 ft | 431 kts | 331° |
| 2026-05-07 21:39 | 33.35305 | 69.87962 | 32947 ft | 431 kts | 331° |
| 2026-05-07 21:39 | 33.40612 | 69.84596 | 32955 ft | 431 kts | 331° |
| 2026-05-07 21:40 | 33.43254 | 69.82919 | 32683 ft | 428 kts | 331° |
| 2026-05-07 21:40 | 33.45862 | 69.81264 | 32197 ft | 422 kts | 331° |
| 2026-05-07 21:40 | 33.48470 | 69.79608 | 31309 ft | 426 kts | 331° |
| 2026-05-07 21:40 | 33.51101 | 69.77935 | 30493 ft | 429 kts | 331° |
| 2026-05-07 21:41 | 33.53752 | 69.76259 | 29578 ft | 433 kts | 332° |
| 2026-05-07 21:41 | 33.56433 | 69.74587 | 28672 ft | 435 kts | 332° |
| 2026-05-07 21:41 | 33.59115 | 69.72927 | 27999 ft | 431 kts | 332° |
| 2026-05-07 21:41 | 33.61764 | 69.71292 | 27467 ft | 425 kts | 332° |
| 2026-05-07 21:42 | 33.64380 | 69.69676 | 26872 ft | 421 kts | 332° |
| 2026-05-07 21:42 | 33.66973 | 69.68070 | 26295 ft | 417 kts | 332° |
| 2026-05-07 21:42 | 33.69505 | 69.66500 | 25737 ft | 414 kts | 332° |
| 2026-05-07 21:42 | 33.72055 | 69.64915 | 25163 ft | 411 kts | 332° |
| 2026-05-07 21:43 | 33.74589 | 69.63340 | 24609 ft | 409 kts | 333° |
| 2026-05-07 21:43 | 33.77114 | 69.61767 | 24040 ft | 407 kts | 333° |
| 2026-05-07 21:43 | 33.79628 | 69.60202 | 23457 ft | 406 kts | 333° |
| 2026-05-07 21:43 | 33.82130 | 69.58644 | 22855 ft | 404 kts | 333° |
| 2026-05-07 21:44 | 33.84618 | 69.57092 | 22293 ft | 401 kts | 333° |
| 2026-05-07 21:44 | 33.87088 | 69.55551 | 21746 ft | 398 kts | 333° |
| 2026-05-07 21:44 | 33.89542 | 69.54021 | 21199 ft | 396 kts | 333° |
| 2026-05-07 21:44 | 33.91982 | 69.52498 | 20658 ft | 394 kts | 332° |
| 2026-05-07 21:45 | 33.94413 | 69.50978 | 20115 ft | 393 kts | 332° |
| 2026-05-07 21:45 | 33.96836 | 69.49462 | 19560 ft | 392 kts | 332° |
| 2026-05-07 21:45 | 33.99259 | 69.47948 | 19039 ft | 392 kts | 332° |
| 2026-05-07 21:45 | 34.01674 | 69.46434 | 18491 ft | 391 kts | 332° |
| 2026-05-07 21:46 | 34.04092 | 69.44917 | 17874 ft | 391 kts | 332° |
| 2026-05-07 21:46 | 34.06494 | 69.43407 | 17310 ft | 388 kts | 332° |
| 2026-05-07 21:46 | 34.08922 | 69.42052 | 16840 ft | 383 kts | 340° |
| 2026-05-07 21:46 | 34.11501 | 69.41320 | 16281 ft | 381 kts | 353° |
| 2026-05-07 21:47 | 34.14141 | 69.41432 | 15685 ft | 380 kts | 9° |
| 2026-05-07 21:47 | 34.16703 | 69.42150 | 15141 ft | 378 kts | 14° |
| 2026-05-07 21:47 | 34.19203 | 69.43109 | 14565 ft | 376 kts | 18° |
| 2026-05-07 21:47 | 34.21661 | 69.44180 | 13994 ft | 374 kts | 19° |
| 2026-05-07 21:48 | 34.24089 | 69.45282 | 13371 ft | 372 kts | 19° |
| 2026-05-07 21:48 | 34.26489 | 69.46371 | 13046 ft | 362 kts | 19° |
| 2026-05-07 21:48 | 34.28810 | 69.47408 | 12804 ft | 350 kts | 19° |
| 2026-05-07 21:48 | 34.31061 | 69.48394 | 12590 ft | 338 kts | 18° |
| 2026-05-07 21:49 | 34.33262 | 69.49345 | 12056 ft | 336 kts | 18° |
| 2026-05-07 21:49 | 34.35460 | 69.50286 | 11607 ft | 333 kts | 17° |
| 2026-05-07 21:49 | 34.37626 | 69.51210 | 11338 ft | 325 kts | 18° |
| 2026-05-07 21:49 | 34.39629 | 69.52066 | 11215 ft | 294 kts | 18° |
| 2026-05-07 21:50 | 34.41494 | 69.52861 | 10943 ft | 278 kts | 17° |
| 2026-05-07 21:50 | 34.43305 | 69.53553 | 10663 ft | 268 kts | 9° |
| 2026-05-07 21:50 | 34.45106 | 69.53701 | 10467 ft | 253 kts | 353° |
| 2026-05-07 21:50 | 34.46761 | 69.53185 | 10299 ft | 240 kts | 335° |
| 2026-05-07 21:51 | 34.48096 | 69.52065 | 10124 ft | 230 kts | 316° |
| 2026-05-07 21:51 | 34.48986 | 69.50501 | 9974 ft | 223 kts | 297° |
| 2026-05-07 21:51 | 34.49513 | 69.48764 | 9944 ft | 219 kts | 291° |
| 2026-05-07 21:51 | 34.49982 | 69.47007 | 9940 ft | 220 kts | 290° |
| 2026-05-07 21:52 | 34.50436 | 69.45239 | 9917 ft | 219 kts | 291° |
| 2026-05-07 21:52 | 34.50869 | 69.43505 | 9715 ft | 212 kts | 290° |
| 2026-05-07 21:52 | 34.51298 | 69.41803 | 9381 ft | 211 kts | 290° |
| 2026-05-07 21:52 | 34.51740 | 69.40098 | 9014 ft | 213 kts | 290° |
| 2026-05-07 21:53 | 34.52182 | 69.38382 | 8674 ft | 213 kts | 289° |
| 2026-05-07 21:53 | 34.52618 | 69.36677 | 8357 ft | 210 kts | 289° |
| 2026-05-07 21:53 | 34.53045 | 69.35010 | 8031 ft | 202 kts | 289° |
| 2026-05-07 21:53 | 34.53447 | 69.33444 | 7756 ft | 186 kts | 289° |
| 2026-05-07 21:54 | 34.53816 | 69.32008 | 7483 ft | 171 kts | 288° |
| 2026-05-07 21:54 | 34.54154 | 69.30689 | 7279 ft | 157 kts | 288° |
| 2026-05-07 21:54 | 34.54474 | 69.29446 | 7101 ft | 154 kts | 287° |
| 2026-05-07 21:54 | 34.54793 | 69.28204 | 6921 ft | 155 kts | 286° |
| 2026-05-07 21:55 | 34.55108 | 69.26954 | 6672 ft | 154 kts | 285° |
| 2026-05-07 21:55 | 34.55426 | 69.25710 | 6443 ft | 155 kts | 287° |
| 2026-05-07 21:55 | 34.55748 | 69.24461 | 6133 ft | 153 kts | 286° |
| 2026-05-07 21:55 | 34.56068 | 69.23218 | 5887 ft | 157 kts | 287° |
| 2026-05-07 21:56 | 34.56377 | 69.22022 | 5829 ft | 131 kts | 289° |
| 2026-05-07 21:56 | 34.56582 | 69.21251 | 5829 ft | 55 kts | 287° |
| 2026-05-07 21:56 | 34.56639 | 69.21030 | 5826 ft | 18 kts | 287° |
| 2026-05-07 21:56 | 34.56691 | 69.20977 | 5824 ft | 7 kts | 354° |
| 2026-05-07 21:57 | 34.56711 | 69.20981 | 5824 ft | 1 kts | 9° |
| 2026-05-07 21:57 | 34.56712 | 69.20981 | 5826 ft | 0 kts | 11° |
| 2026-05-07 21:57 | 34.56718 | 69.20983 | 5824 ft | 1 kts | 11° |
| 2026-05-07 21:57 | 34.56741 | 69.20990 | 5822 ft | 6 kts | 13° |
| 2026-05-07 21:58 | 34.56792 | 69.21011 | 5826 ft | 9 kts | 39° |
| 2026-05-07 21:58 | 34.56803 | 69.21090 | 5822 ft | 11 kts | 91° |
| 2026-05-07 21:58 | 34.56776 | 69.21188 | 5824 ft | 14 kts | 109° |
| 2026-05-07 21:58 | 34.56743 | 69.21320 | 5822 ft | 18 kts | 105° |
| 2026-05-07 21:59 | 34.56704 | 69.21484 | 5823 ft | 22 kts | 106° |
| 2026-05-07 21:59 | 34.56797 | 69.21662 | 5826 ft | 0 kts | 104° |